createdAt,value
2022-11-27T00:01:11.702Z,0.10
2022-11-27T00:03:38.973Z,0.10
2022-11-27T00:06:06.307Z,0.10
2022-11-27T00:08:33.317Z,0.10
2022-11-27T00:11:11.371Z,0.00
2022-11-27T00:13:38.670Z,0.00
2022-11-27T00:16:06.327Z,0.00
2022-11-27T00:18:33.839Z,0.00
2022-11-27T00:21:13.479Z,0.00
2022-11-27T00:23:40.816Z,0.00
2022-11-27T00:26:08.534Z,-0.20
2022-11-27T00:28:36.697Z,-0.10
2022-11-27T00:31:07.478Z,0.00
2022-11-27T00:33:34.781Z,0.00
2022-11-27T00:36:06.302Z,-0.10
2022-11-27T00:38:38.498Z,0.00
2022-11-27T00:41:15.540Z,-0.10
2022-11-27T00:43:45.118Z,-0.10
2022-11-27T00:46:16.887Z,-0.10
2022-11-27T00:48:44.839Z,-0.20
2022-11-27T00:51:14.686Z,-0.20
2022-11-27T00:53:42.350Z,-0.20
2022-11-27T00:56:11.111Z,-0.10
2022-11-27T00:58:37.930Z,0.00
2022-11-27T01:01:07.474Z,-0.10
2022-11-27T01:03:35.280Z,-0.10
2022-11-27T01:06:07.335Z,0.00
2022-11-27T01:08:34.744Z,-0.10
2022-11-27T01:11:02.368Z,-0.10
2022-11-27T01:13:35.840Z,-0.10
2022-11-27T01:16:04.050Z,-0.10
2022-11-27T01:18:31.289Z,-0.10
2022-11-27T01:20:58.203Z,-0.10
2022-11-27T01:23:25.454Z,-0.10
2022-11-27T01:25:54.984Z,-0.20
2022-11-27T01:28:23.976Z,-0.10
2022-11-27T01:30:51.458Z,0.00
2022-11-27T01:33:19.062Z,-0.20
2022-11-27T01:36:05.917Z,-0.10
2022-11-27T01:38:33.350Z,-0.10
2022-11-27T01:41:05.406Z,0.00
2022-11-27T01:43:47.660Z,-0.10
2022-11-27T01:46:29.601Z,-0.20
2022-11-27T01:49:09.661Z,-0.10
2022-11-27T01:51:40.841Z,-0.10
2022-11-27T01:54:10.465Z,0.00
2022-11-27T01:56:40.169Z,-0.10
2022-11-27T01:59:08.168Z,-0.20
2022-11-27T02:01:35.182Z,-0.20
2022-11-27T02:04:03.212Z,-0.10
2022-11-27T02:06:30.124Z,-0.10
2022-11-27T02:08:57.413Z,-0.10
2022-11-27T02:11:39.407Z,0.00
2022-11-27T02:14:31.839Z,0.00
2022-11-27T02:17:17.268Z,-0.10
2022-11-27T02:19:44.045Z,0.00
2022-11-27T02:22:38.941Z,0.00
2022-11-27T02:25:28.611Z,-0.10
2022-11-27T02:28:33.082Z,0.00
2022-11-27T02:31:13.543Z,-0.10
2022-11-27T02:33:46.385Z,0.00
2022-11-27T02:36:21.642Z,0.00
2022-11-27T02:38:56.346Z,-0.10
2022-11-27T02:41:28.445Z,-0.10
2022-11-27T02:43:56.883Z,-0.10
2022-11-27T02:46:24.565Z,-0.10
2022-11-27T02:49:02.463Z,-0.20
2022-11-27T02:51:39.075Z,-0.10
2022-11-27T02:54:09.665Z,-0.10
2022-11-27T02:56:38.872Z,-0.20
2022-11-27T02:59:09.421Z,-0.10
2022-11-27T03:01:45.370Z,-0.10
2022-11-27T03:04:17.614Z,-0.20
2022-11-27T03:06:51.011Z,-0.10
2022-11-27T03:09:24.821Z,-0.10
2022-11-27T03:11:51.992Z,-0.30
2022-11-27T03:14:24.470Z,-0.20
2022-11-27T03:17:26.718Z,-0.30
2022-11-27T03:20:12.239Z,-0.30
2022-11-27T03:22:39.245Z,-0.20
2022-11-27T03:25:06.579Z,-0.20
2022-11-27T03:27:39.858Z,-0.20
2022-11-27T03:30:12.313Z,-0.20
2022-11-27T03:32:39.171Z,-0.30
2022-11-27T03:35:09.649Z,-0.40
2022-11-27T03:37:37.193Z,-0.20
2022-11-27T03:40:05.619Z,-0.20
2022-11-27T03:42:47.298Z,-0.30
2022-11-27T03:45:22.268Z,-0.20
2022-11-27T03:48:04.125Z,-0.50
2022-11-27T03:50:30.947Z,-0.60
2022-11-27T03:53:08.218Z,-0.50
2022-11-27T03:55:46.891Z,-0.30
2022-11-27T03:58:58.206Z,-0.30
2022-11-27T04:01:27.405Z,-0.30
2022-11-27T04:03:54.348Z,-0.20
2022-11-27T04:06:21.229Z,-0.20
2022-11-27T04:08:48.707Z,-0.40
2022-11-27T04:11:16.166Z,-0.30
2022-11-27T04:13:43.205Z,-0.40
2022-11-27T04:16:10.137Z,-0.50
2022-11-27T04:18:37.109Z,-0.40
2022-11-27T04:21:04.463Z,-0.20
2022-11-27T04:23:31.249Z,-0.30
2022-11-27T04:25:58.040Z,-0.30
2022-11-27T04:28:24.854Z,-0.20
2022-11-27T04:30:53.108Z,-0.40
2022-11-27T04:33:20.597Z,-0.30
2022-11-27T04:35:47.482Z,-0.30
2022-11-27T04:38:14.696Z,-0.20
2022-11-27T04:40:41.501Z,-0.20
2022-11-27T04:43:08.351Z,-0.20
2022-11-27T04:45:35.383Z,-0.20
2022-11-27T04:48:02.370Z,-0.30
2022-11-27T04:50:29.247Z,-0.40
2022-11-27T04:52:56.121Z,-0.30
2022-11-27T04:55:23.483Z,-0.20
2022-11-27T04:57:50.331Z,-0.20
2022-11-27T05:00:17.925Z,-0.30
2022-11-27T05:02:44.835Z,-0.30
2022-11-27T05:05:11.725Z,-0.20
2022-11-27T05:07:38.655Z,-0.30
2022-11-27T05:10:06.846Z,-0.30
2022-11-27T05:12:33.754Z,-0.30
2022-11-27T05:15:04.170Z,-0.40
2022-11-27T05:17:31.552Z,-0.40
2022-11-27T05:19:58.427Z,-0.30
2022-11-27T05:22:25.280Z,-0.30
2022-11-27T05:24:52.111Z,-0.30
2022-11-27T05:27:18.980Z,-0.30
2022-11-27T05:29:45.908Z,-0.20
2022-11-27T05:32:12.880Z,-0.20
2022-11-27T05:34:40.049Z,-0.20
2022-11-27T05:37:07.660Z,-0.20
2022-11-27T05:39:34.506Z,-0.30
2022-11-27T05:42:01.412Z,-0.30
2022-11-27T05:44:28.348Z,-0.30
2022-11-27T05:46:55.243Z,-0.20
2022-11-27T05:49:22.153Z,-0.30
2022-11-27T05:51:51.245Z,-0.20
2022-11-27T05:54:18.969Z,-0.30
2022-11-27T05:56:46.042Z,-0.30
2022-11-27T05:59:13.028Z,-0.20
2022-11-27T06:01:40.118Z,-0.20
2022-11-27T06:04:07.063Z,-0.20
2022-11-27T06:06:33.878Z,-0.20
2022-11-27T06:09:00.920Z,-0.10
2022-11-27T06:11:27.871Z,-0.20
2022-11-27T06:13:54.795Z,-0.30
2022-11-27T06:16:23.919Z,-0.40
2022-11-27T06:18:55.638Z,-0.20
2022-11-27T06:21:23.047Z,-0.30
2022-11-27T06:23:52.929Z,-0.30
2022-11-27T06:26:21.444Z,-0.20
2022-11-27T06:28:49.124Z,-0.20
2022-11-27T06:31:23.979Z,-0.20
2022-11-27T06:33:52.428Z,-0.20
2022-11-27T06:36:20.390Z,-0.20
2022-11-27T06:38:47.499Z,-0.20
2022-11-27T06:41:20.090Z,-0.20
2022-11-27T06:43:47.279Z,-0.20
2022-11-27T06:46:17.504Z,-0.20
2022-11-27T06:48:46.316Z,-0.20
2022-11-27T06:51:15.903Z,-0.20
2022-11-27T06:53:43.596Z,-0.30
2022-11-27T06:56:15.836Z,-0.30
2022-11-27T06:58:43.648Z,-0.20
2022-11-27T07:01:16.298Z,-0.20
2022-11-27T07:03:44.303Z,-0.10
2022-11-27T07:06:13.374Z,-0.10
2022-11-27T07:08:40.156Z,-0.10
2022-11-27T07:11:13.127Z,-0.10
2022-11-27T07:13:40.770Z,-0.10
2022-11-27T07:16:09.617Z,-0.10
2022-11-27T07:18:50.728Z,-0.10
2022-11-27T07:21:18.178Z,-0.10
2022-11-27T07:23:45.272Z,-0.10
2022-11-27T07:26:15.794Z,0.00
2022-11-27T07:28:46.314Z,-0.10
2022-11-27T07:31:16.357Z,-0.10
2022-11-27T07:33:43.416Z,-0.10
2022-11-27T07:36:16.216Z,-0.10
2022-11-27T07:38:43.616Z,0.00
2022-11-27T07:41:10.857Z,-0.10
2022-11-27T07:43:37.749Z,0.00
2022-11-27T07:46:10.520Z,0.00
2022-11-27T07:48:37.869Z,-0.10
2022-11-27T07:51:09.459Z,-0.10
2022-11-27T07:53:39.821Z,-0.10
2022-11-27T07:56:08.501Z,-0.10
2022-11-27T07:58:35.384Z,0.00
2022-11-27T08:01:06.129Z,0.00
2022-11-27T08:03:33.043Z,0.00
2022-11-27T08:06:00.070Z,0.00
2022-11-27T08:08:27.014Z,0.00
2022-11-27T08:10:53.900Z,-0.10
2022-11-27T08:13:20.802Z,-0.10
2022-11-27T08:15:48.393Z,0.00
2022-11-27T08:18:15.450Z,0.00
2022-11-27T08:20:42.446Z,-0.10
2022-11-27T08:23:09.389Z,-0.10
2022-11-27T08:25:38.231Z,0.00
2022-11-27T08:28:05.444Z,0.00
2022-11-27T08:30:32.373Z,0.10
2022-11-27T08:32:59.544Z,0.00
2022-11-27T08:35:26.510Z,-0.10
2022-11-27T08:37:53.616Z,0.10
2022-11-27T08:40:20.647Z,0.00
2022-11-27T08:42:47.491Z,0.10
2022-11-27T08:45:14.627Z,0.10
2022-11-27T08:47:43.589Z,0.20
2022-11-27T08:50:10.877Z,0.20
2022-11-27T08:52:37.814Z,0.30
2022-11-27T08:55:05.659Z,0.40
2022-11-27T08:57:32.693Z,0.20
2022-11-27T08:59:59.676Z,0.20
2022-11-27T09:02:26.687Z,0.20
2022-11-27T09:04:53.614Z,0.40
2022-11-27T09:07:20.570Z,0.40
2022-11-27T09:09:47.460Z,0.30
2022-11-27T09:12:14.458Z,0.30
2022-11-27T09:14:41.810Z,0.30
2022-11-27T09:17:09.829Z,0.20
2022-11-27T09:19:36.750Z,0.30
2022-11-27T09:22:04.108Z,0.30
2022-11-27T09:24:31.058Z,0.20
2022-11-27T09:26:58.151Z,0.10
2022-11-27T09:29:25.132Z,0.10
2022-11-27T09:31:52.196Z,0.00
2022-11-27T09:34:19.124Z,0.10
2022-11-27T09:36:48.812Z,0.20
2022-11-27T09:39:17.003Z,0.20
2022-11-27T09:41:44.082Z,0.10
2022-11-27T09:44:54.080Z,0.20
2022-11-27T09:47:41.400Z,0.30
2022-11-27T09:50:22.695Z,0.30
2022-11-27T09:53:10.203Z,0.30
2022-11-27T09:55:44.832Z,0.20
2022-11-27T09:58:17.941Z,0.30
2022-11-27T10:00:46.954Z,0.30
2022-11-27T10:03:15.939Z,0.20
2022-11-27T10:05:49.996Z,0.30
2022-11-27T10:08:55.968Z,0.30
2022-11-27T10:11:34.234Z,0.40
2022-11-27T10:14:16.241Z,0.40
2022-11-27T10:16:54.355Z,0.40
2022-11-27T10:19:53.274Z,0.40
2022-11-27T10:22:29.240Z,0.50
2022-11-27T10:25:20.501Z,0.50
2022-11-27T10:28:08.405Z,0.40
2022-11-27T10:30:39.853Z,0.50
2022-11-27T10:33:18.865Z,0.30
2022-11-27T10:35:49.076Z,0.30
2022-11-27T10:38:28.086Z,0.40
2022-11-27T10:41:09.803Z,0.50
2022-11-27T10:43:39.143Z,0.50
2022-11-27T10:46:14.011Z,0.50
2022-11-27T10:48:41.284Z,0.50
2022-11-27T10:51:36.317Z,0.50
2022-11-27T10:54:06.889Z,0.50
2022-11-27T10:56:44.029Z,0.50
2022-11-27T10:59:19.237Z,0.60
2022-11-27T11:01:53.376Z,0.50
2022-11-27T11:04:38.017Z,0.50
2022-11-27T11:07:28.244Z,0.50
2022-11-27T11:09:56.441Z,0.30
2022-11-27T11:12:24.176Z,0.50
2022-11-27T11:14:59.851Z,0.50
2022-11-27T11:17:34.705Z,0.50
2022-11-27T11:20:12.632Z,0.50
2022-11-27T11:22:46.947Z,0.50
2022-11-27T11:25:21.026Z,0.40
2022-11-27T11:27:50.074Z,0.50
2022-11-27T11:30:39.589Z,0.50
2022-11-27T11:33:11.926Z,0.40
2022-11-27T11:35:38.958Z,0.50
2022-11-27T11:38:16.850Z,0.40
2022-11-27T11:40:46.855Z,0.50
2022-11-27T11:43:27.140Z,0.60
2022-11-27T11:45:54.276Z,0.60
2022-11-27T11:48:27.141Z,0.50
2022-11-27T11:50:54.035Z,0.40
2022-11-27T11:53:42.705Z,0.50
2022-11-27T11:56:21.965Z,0.50
2022-11-27T11:58:59.049Z,0.60
2022-11-27T12:01:47.940Z,0.50
2022-11-27T12:05:06.359Z,0.40
2022-11-27T12:07:54.401Z,0.50
2022-11-27T12:10:30.991Z,0.50
2022-11-27T12:13:32.929Z,0.50
2022-11-27T12:16:27.284Z,0.60
2022-11-27T12:19:32.825Z,0.60
2022-11-27T12:22:45.200Z,0.70
2022-11-27T12:25:38.309Z,0.70
2022-11-27T12:28:28.640Z,0.70
2022-11-27T12:31:02.961Z,0.70
2022-11-27T12:34:05.835Z,0.60
2022-11-27T12:36:51.453Z,0.50
2022-11-27T12:39:24.679Z,0.50
2022-11-27T12:41:51.653Z,0.50
2022-11-27T12:44:24.341Z,0.60
2022-11-27T12:46:58.837Z,0.60
2022-11-27T12:49:37.908Z,0.40
2022-11-27T12:52:38.496Z,0.30
2022-11-27T12:55:19.543Z,0.40
2022-11-27T12:58:05.000Z,0.40
2022-11-27T13:00:37.516Z,0.50
2022-11-27T13:03:28.864Z,0.50
2022-11-27T13:06:10.278Z,0.40
2022-11-27T13:08:52.217Z,0.40
2022-11-27T13:11:24.387Z,0.30
2022-11-27T13:14:22.445Z,0.30
2022-11-27T13:17:03.197Z,0.30
2022-11-27T13:19:41.528Z,0.40
2022-11-27T13:22:21.722Z,0.40
2022-11-27T13:24:48.751Z,0.30
2022-11-27T13:27:23.792Z,0.20
2022-11-27T13:30:07.276Z,0.00
2022-11-27T13:32:40.009Z,0.00
2022-11-27T13:35:20.065Z,-0.20
2022-11-27T13:37:49.607Z,-0.10
2022-11-27T13:40:26.557Z,-0.10
2022-11-27T13:42:55.870Z,0.10
2022-11-27T13:45:32.413Z,0.00
2022-11-27T13:48:01.904Z,-0.20
2022-11-27T13:50:31.669Z,-0.20
2022-11-27T13:53:07.468Z,-0.10
2022-11-27T13:55:40.699Z,0.10
2022-11-27T13:58:08.313Z,0.10
2022-11-27T14:00:44.072Z,-0.10
2022-11-27T14:03:23.172Z,-0.10
2022-11-27T14:05:50.080Z,-0.10
2022-11-27T14:08:20.799Z,0.10
2022-11-27T14:11:00.681Z,-0.10
2022-11-27T14:13:41.538Z,-0.20
2022-11-27T14:16:26.912Z,-0.10
2022-11-27T14:18:57.403Z,-0.20
2022-11-27T14:21:38.933Z,-0.20
2022-11-27T14:24:41.224Z,-0.30
2022-11-27T14:27:23.718Z,-0.30
2022-11-27T14:29:51.187Z,-0.30
2022-11-27T14:32:20.103Z,-0.20
2022-11-27T14:34:50.781Z,-0.20
2022-11-27T14:37:35.531Z,-0.20
2022-11-27T14:40:20.047Z,-0.20
2022-11-27T14:42:46.995Z,-0.30
2022-11-27T14:45:17.998Z,-0.20
2022-11-27T14:47:53.231Z,-0.20
2022-11-27T14:50:21.270Z,-0.20
2022-11-27T14:52:54.726Z,-0.20
2022-11-27T14:55:22.615Z,-0.20
2022-11-27T14:57:50.674Z,-0.20
2022-11-27T15:00:27.220Z,-0.20
2022-11-27T15:02:54.799Z,-0.20
2022-11-27T15:05:29.297Z,-0.20
2022-11-27T15:07:58.623Z,-0.10
2022-11-27T15:10:25.474Z,0.00
2022-11-27T15:12:52.766Z,0.00
2022-11-27T15:15:28.594Z,0.00
2022-11-27T15:18:01.806Z,0.00
2022-11-27T15:20:42.754Z,0.00
2022-11-27T15:23:20.419Z,0.00
2022-11-27T15:25:51.596Z,0.00
2022-11-27T15:28:30.201Z,-0.10
2022-11-27T15:30:58.135Z,0.00
2022-11-27T15:33:27.810Z,0.00
2022-11-27T15:36:18.850Z,0.00
2022-11-27T15:38:46.645Z,0.00
2022-11-27T15:41:19.839Z,0.00
2022-11-27T15:43:46.725Z,0.00
2022-11-27T15:46:15.102Z,0.00
2022-11-27T15:48:41.994Z,-0.10
2022-11-27T15:51:08.805Z,-0.10
2022-11-27T15:53:35.639Z,0.00
2022-11-27T15:56:02.461Z,0.10
2022-11-27T15:58:29.315Z,0.10
2022-11-27T16:00:56.169Z,0.00
2022-11-27T16:03:23.075Z,0.10
2022-11-27T16:05:49.915Z,0.10
2022-11-27T16:08:17.291Z,0.10
2022-11-27T16:10:44.116Z,0.00
2022-11-27T16:13:11.000Z,0.00
2022-11-27T16:15:37.876Z,-0.10
2022-11-27T16:18:04.913Z,-0.10
2022-11-27T16:20:31.751Z,-0.10
2022-11-27T16:22:58.638Z,-0.10
2022-11-27T16:25:26.348Z,-0.10
2022-11-27T16:27:56.655Z,0.00
2022-11-27T16:30:26.308Z,-0.10
2022-11-27T16:32:53.221Z,-0.20
2022-11-27T16:35:20.064Z,-0.10
2022-11-27T16:37:46.899Z,0.00
2022-11-27T16:40:14.317Z,0.00
2022-11-27T16:42:41.183Z,-0.10
2022-11-27T16:45:08.597Z,0.00
2022-11-27T16:47:35.415Z,-0.10
2022-11-27T16:50:02.762Z,-0.10
2022-11-27T16:52:29.633Z,-0.10
2022-11-27T16:54:56.484Z,-0.10
2022-11-27T16:57:23.316Z,0.00
2022-11-27T16:59:50.947Z,0.00
2022-11-27T17:02:17.908Z,0.00
2022-11-27T17:04:45.201Z,-0.10
2022-11-27T17:07:12.231Z,-0.10
2022-11-27T17:09:41.200Z,0.00
2022-11-27T17:12:08.228Z,0.10
2022-11-27T17:14:36.960Z,0.00
2022-11-27T17:17:06.214Z,-0.10
2022-11-27T17:19:34.237Z,0.00
2022-11-27T17:22:01.438Z,-0.10
2022-11-27T17:24:28.970Z,0.00
2022-11-27T17:26:56.038Z,-0.10
2022-11-27T17:29:23.160Z,0.00
2022-11-27T17:31:51.051Z,-0.10
2022-11-27T17:34:18.577Z,0.00
2022-11-27T17:36:46.609Z,0.00
2022-11-27T17:39:15.080Z,-0.10
2022-11-27T17:41:45.124Z,-0.10
2022-11-27T17:44:12.690Z,-0.10
2022-11-27T17:46:40.118Z,-0.10
2022-11-27T17:49:08.074Z,-0.10
2022-11-27T17:51:36.316Z,-0.10
2022-11-27T17:54:03.554Z,0.00
2022-11-27T17:56:30.463Z,-0.10
2022-11-27T17:58:57.348Z,-0.10
2022-11-27T18:01:27.167Z,-0.10
2022-11-27T18:04:00.595Z,-0.10
2022-11-27T18:06:27.763Z,-0.10
2022-11-27T18:08:56.533Z,-0.10
2022-11-27T18:11:25.814Z,0.00
2022-11-27T18:13:52.672Z,-0.10
2022-11-27T18:16:29.029Z,-0.10
2022-11-27T18:18:57.216Z,-0.20
2022-11-27T18:21:27.063Z,-0.10
2022-11-27T18:29:29.189Z,-0.20
2022-11-27T18:31:56.144Z,-0.20
2022-11-27T18:34:23.045Z,-0.30
2022-11-27T18:36:49.876Z,-0.30
2022-11-27T18:39:16.826Z,-0.30
2022-11-27T18:41:43.670Z,-0.30
2022-11-27T18:44:10.517Z,-0.40
2022-11-27T18:46:37.739Z,-0.30
2022-11-27T18:49:04.627Z,-0.20
2022-11-27T18:51:31.439Z,-0.10
2022-11-27T18:53:58.425Z,-0.10
2022-11-27T18:56:28.657Z,-0.20
2022-11-27T18:58:55.672Z,-0.10
2022-11-27T19:01:25.958Z,0.00
2022-11-27T19:03:53.109Z,-0.10
2022-11-27T19:06:21.457Z,-0.10
2022-11-27T19:08:48.670Z,-0.20
2022-11-27T19:11:18.470Z,-0.20
2022-11-27T19:13:46.046Z,-0.30
2022-11-27T19:16:23.432Z,-0.20
2022-11-27T19:18:50.650Z,-0.20
2022-11-27T19:21:20.135Z,-0.10
2022-11-27T19:23:47.899Z,-0.20
2022-11-27T19:26:17.481Z,-0.20
2022-11-27T19:28:45.429Z,-0.20
2022-11-27T19:31:13.845Z,-0.20
2022-11-27T19:33:40.837Z,-0.40
2022-11-27T19:36:10.364Z,-0.40
2022-11-27T19:38:38.635Z,-0.40
2022-11-27T19:41:14.012Z,-0.40
2022-11-27T19:43:41.198Z,-0.40
2022-11-27T19:46:18.495Z,-0.30
2022-11-27T19:48:45.864Z,-0.40
2022-11-27T19:51:13.594Z,-0.50
2022-11-27T19:53:41.552Z,-0.50
2022-11-27T19:56:09.453Z,-0.40
2022-11-27T19:58:38.139Z,-0.40
2022-11-27T20:01:09.895Z,-0.20
2022-11-27T20:03:37.212Z,-0.30
2022-11-27T20:06:15.411Z,-0.40
2022-11-27T20:08:43.603Z,-0.40
2022-11-27T20:11:12.952Z,-0.40
2022-11-27T20:13:40.060Z,-0.30
2022-11-27T20:16:15.167Z,-0.30
2022-11-27T20:18:42.221Z,-0.30
2022-11-27T20:21:12.863Z,-0.40
2022-11-27T20:23:40.649Z,-0.30
2022-11-27T20:26:09.034Z,-0.30
2022-11-27T20:28:36.876Z,-0.30
2022-11-27T20:31:04.305Z,-0.40
2022-11-27T20:33:32.565Z,-0.30
2022-11-27T20:36:00.433Z,-0.30
2022-11-27T20:38:27.220Z,-0.30
2022-11-27T20:40:54.403Z,-0.30
2022-11-27T20:43:21.267Z,-0.30
2022-11-27T20:45:52.007Z,-0.30
2022-11-27T20:48:19.058Z,-0.40
2022-11-27T20:50:50.984Z,-0.30
2022-11-27T20:53:18.773Z,-0.20
2022-11-27T20:55:45.965Z,-0.30
2022-11-27T20:58:12.899Z,-0.30
2022-11-27T21:00:40.466Z,-0.30
2022-11-27T21:03:07.609Z,-0.30
2022-11-27T21:05:34.565Z,-0.30
2022-11-27T21:08:01.529Z,-0.40
2022-11-27T21:10:28.508Z,-0.30
2022-11-27T21:12:55.442Z,-0.30
2022-11-27T21:15:22.477Z,-0.40
2022-11-27T21:17:49.529Z,-0.30
2022-11-27T21:20:16.524Z,-0.30
2022-11-27T21:22:44.149Z,-0.30
2022-11-27T21:25:11.218Z,-0.30
2022-11-27T21:27:38.290Z,-0.40
2022-11-27T21:30:06.487Z,-0.40
2022-11-27T21:32:33.386Z,-0.40
2022-11-27T21:35:00.241Z,-0.40
2022-11-27T21:37:27.206Z,-0.40
2022-11-27T21:39:54.187Z,-0.40
2022-11-27T21:42:21.034Z,-0.30
2022-11-27T21:44:47.951Z,-0.30
2022-11-27T21:47:14.775Z,-0.40
2022-11-27T21:49:42.175Z,-0.30
2022-11-27T21:52:09.142Z,-0.30
2022-11-27T21:54:36.550Z,-0.40
2022-11-27T21:57:03.560Z,-0.30
2022-11-27T21:59:30.533Z,-0.40
2022-11-27T22:01:57.531Z,-0.30
2022-11-27T22:04:25.400Z,-0.30
2022-11-27T22:06:52.554Z,-0.40
2022-11-27T22:09:20.157Z,-0.40
2022-11-27T22:11:47.370Z,-0.30
2022-11-27T22:14:16.002Z,-0.30
2022-11-27T22:16:45.912Z,-0.20
2022-11-27T22:19:14.657Z,-0.30
2022-11-27T22:21:41.938Z,-0.30
2022-11-27T22:24:16.498Z,-0.30
2022-11-27T22:26:45.034Z,-0.30
2022-11-27T22:29:11.876Z,-0.40
2022-11-27T22:31:38.754Z,-0.30
2022-11-27T22:34:05.626Z,-0.20
2022-11-27T22:36:34.846Z,-0.20
2022-11-27T22:39:05.482Z,-0.20
2022-11-27T22:41:36.531Z,-0.30
2022-11-27T22:44:08.755Z,-0.30
2022-11-27T22:46:36.681Z,-0.30
2022-11-27T22:49:06.393Z,-0.20
2022-11-27T22:51:35.686Z,-0.30
2022-11-27T22:54:03.696Z,-0.30
2022-11-27T22:56:30.671Z,-0.30
2022-11-27T22:59:24.575Z,-0.30
2022-11-27T23:01:48.464Z,-0.30
2022-11-27T23:04:15.655Z,-0.30
2022-11-27T23:06:44.522Z,-0.30
2022-11-27T23:09:11.350Z,-0.30
2022-11-27T23:11:38.246Z,-0.30
2022-11-27T23:14:05.194Z,-0.30
2022-11-27T23:16:32.962Z,-0.40
2022-11-27T23:18:59.770Z,-0.40
2022-11-27T23:21:27.305Z,-0.30
2022-11-27T23:23:54.227Z,-0.30
2022-11-27T23:26:23.245Z,-0.40
2022-11-27T23:28:52.589Z,-0.30
2022-11-27T23:31:30.451Z,-0.20
2022-11-27T23:33:58.701Z,-0.40
2022-11-27T23:36:25.598Z,-0.30
2022-11-27T23:38:52.500Z,-0.30
2022-11-27T23:41:22.720Z,-0.20
2022-11-27T23:43:50.465Z,-0.20
2022-11-27T23:46:19.690Z,-0.30
2022-11-27T23:48:46.555Z,-0.30
2022-11-27T23:51:16.221Z,-0.40
2022-11-27T23:53:43.359Z,-0.30
2022-11-27T23:56:16.037Z,-0.40
2022-11-27T23:58:47.419Z,-0.40
